sensor_id;sensor_type;location;lat;lon;timestamp;P1;durP1;ratioP1;P2;durP2;ratioP2
48207;SDS011;33997;53.278;9.708;2024-02-14T00:01:26;1.02;;;0.77;;
48207;SDS011;33997;53.278;9.708;2024-02-14T00:03:51;1.00;;;0.88;;
48207;SDS011;33997;53.278;9.708;2024-02-14T00:06:17;0.70;;;0.70;;
48207;SDS011;33997;53.278;9.708;2024-02-14T00:08:43;1.65;;;0.88;;
48207;SDS011;33997;53.278;9.708;2024-02-14T00:11:09;1.48;;;0.85;;
48207;SDS011;33997;53.278;9.708;2024-02-14T00:13:34;2.75;;;0.75;;
48207;SDS011;33997;53.278;9.708;2024-02-14T00:16:00;1.70;;;0.93;;
48207;SDS011;33997;53.278;9.708;2024-02-14T00:18:27;1.50;;;0.82;;
48207;SDS011;33997;53.278;9.708;2024-02-14T00:20:53;2.15;;;1.10;;
48207;SDS011;33997;53.278;9.708;2024-02-14T00:23:19;1.85;;;1.25;;
48207;SDS011;33997;53.278;9.708;2024-02-14T00:25:44;1.08;;;0.80;;
48207;SDS011;33997;53.278;9.708;2024-02-14T00:28:10;1.25;;;1.05;;
48207;SDS011;33997;53.278;9.708;2024-02-14T00:30:35;2.63;;;1.27;;
48207;SDS011;33997;53.278;9.708;2024-02-14T00:33:00;1.23;;;0.95;;
48207;SDS011;33997;53.278;9.708;2024-02-14T00:35:26;2.30;;;1.27;;
48207;SDS011;33997;53.278;9.708;2024-02-14T00:37:51;0.93;;;0.85;;
48207;SDS011;33997;53.278;9.708;2024-02-14T00:40:17;1.02;;;0.90;;
48207;SDS011;33997;53.278;9.708;2024-02-14T00:42:43;1.77;;;0.80;;
48207;SDS011;33997;53.278;9.708;2024-02-14T00:45:08;3.03;;;1.00;;
48207;SDS011;33997;53.278;9.708;2024-02-14T00:47:34;3.17;;;0.95;;
48207;SDS011;33997;53.278;9.708;2024-02-14T00:50:00;1.45;;;0.93;;
48207;SDS011;33997;53.278;9.708;2024-02-14T00:52:26;3.38;;;1.17;;
48207;SDS011;33997;53.278;9.708;2024-02-14T00:54:51;1.58;;;0.85;;
48207;SDS011;33997;53.278;9.708;2024-02-14T00:57:17;1.73;;;1.17;;
48207;SDS011;33997;53.278;9.708;2024-02-14T00:59:44;1.10;;;0.80;;
48207;SDS011;33997;53.278;9.708;2024-02-14T01:02:09;0.65;;;0.60;;
48207;SDS011;33997;53.278;9.708;2024-02-14T01:04:35;1.23;;;0.80;;
48207;SDS011;33997;53.278;9.708;2024-02-14T01:07:02;1.27;;;1.05;;
48207;SDS011;33997;53.278;9.708;2024-02-14T01:09:28;2.08;;;1.10;;
48207;SDS011;33997;53.278;9.708;2024-02-14T01:11:53;2.50;;;1.08;;
48207;SDS011;33997;53.278;9.708;2024-02-14T01:14:19;2.03;;;1.10;;
48207;SDS011;33997;53.278;9.708;2024-02-14T01:16:44;2.10;;;0.95;;
48207;SDS011;33997;53.278;9.708;2024-02-14T01:19:10;1.75;;;0.88;;
48207;SDS011;33997;53.278;9.708;2024-02-14T01:21:36;1.15;;;1.00;;
48207;SDS011;33997;53.278;9.708;2024-02-14T01:24:02;2.25;;;0.88;;
48207;SDS011;33997;53.278;9.708;2024-02-14T01:26:30;2.70;;;1.40;;
48207;SDS011;33997;53.278;9.708;2024-02-14T01:28:55;1.30;;;0.90;;
48207;SDS011;33997;53.278;9.708;2024-02-14T01:31:21;1.52;;;1.10;;
48207;SDS011;33997;53.278;9.708;2024-02-14T01:33:47;1.80;;;1.17;;
48207;SDS011;33997;53.278;9.708;2024-02-14T01:36:12;2.15;;;1.02;;
48207;SDS011;33997;53.278;9.708;2024-02-14T01:38:38;1.85;;;1.00;;
48207;SDS011;33997;53.278;9.708;2024-02-14T01:41:04;3.15;;;1.20;;
48207;SDS011;33997;53.278;9.708;2024-02-14T01:43:30;1.57;;;0.90;;
48207;SDS011;33997;53.278;9.708;2024-02-14T01:45:57;2.05;;;1.15;;
48207;SDS011;33997;53.278;9.708;2024-02-14T01:48:29;3.13;;;1.45;;
48207;SDS011;33997;53.278;9.708;2024-02-14T01:50:55;1.27;;;0.90;;
48207;SDS011;33997;53.278;9.708;2024-02-14T01:53:21;1.98;;;1.25;;
48207;SDS011;33997;53.278;9.708;2024-02-14T01:55:46;1.23;;;0.88;;
48207;SDS011;33997;53.278;9.708;2024-02-14T01:58:12;2.30;;;1.20;;
48207;SDS011;33997;53.278;9.708;2024-02-14T02:00:38;2.95;;;1.02;;
48207;SDS011;33997;53.278;9.708;2024-02-14T02:03:03;2.00;;;1.00;;
48207;SDS011;33997;53.278;9.708;2024-02-14T02:05:29;1.25;;;0.93;;
48207;SDS011;33997;53.278;9.708;2024-02-14T02:07:55;2.08;;;1.17;;
48207;SDS011;33997;53.278;9.708;2024-02-14T02:10:20;1.92;;;1.10;;
48207;SDS011;33997;53.278;9.708;2024-02-14T02:12:47;3.10;;;1.33;;
48207;SDS011;33997;53.278;9.708;2024-02-14T02:15:13;1.35;;;1.00;;
48207;SDS011;33997;53.278;9.708;2024-02-14T02:17:39;1.67;;;1.02;;
48207;SDS011;33997;53.278;9.708;2024-02-14T02:20:05;1.17;;;0.93;;
48207;SDS011;33997;53.278;9.708;2024-02-14T02:22:33;1.73;;;1.02;;
48207;SDS011;33997;53.278;9.708;2024-02-14T02:25:00;2.22;;;0.95;;
48207;SDS011;33997;53.278;9.708;2024-02-14T02:27:27;2.67;;;1.05;;
48207;SDS011;33997;53.278;9.708;2024-02-14T02:29:53;1.08;;;0.90;;
48207;SDS011;33997;53.278;9.708;2024-02-14T02:32:18;1.38;;;1.20;;
48207;SDS011;33997;53.278;9.708;2024-02-14T02:34:43;1.02;;;0.85;;
48207;SDS011;33997;53.278;9.708;2024-02-14T02:37:10;2.25;;;1.30;;
48207;SDS011;33997;53.278;9.708;2024-02-14T02:39:36;2.03;;;1.00;;
48207;SDS011;33997;53.278;9.708;2024-02-14T02:42:02;1.85;;;1.23;;
48207;SDS011;33997;53.278;9.708;2024-02-14T02:44:28;1.25;;;1.02;;
48207;SDS011;33997;53.278;9.708;2024-02-14T02:46:54;2.20;;;1.25;;
48207;SDS011;33997;53.278;9.708;2024-02-14T02:49:20;1.77;;;1.13;;
48207;SDS011;33997;53.278;9.708;2024-02-14T02:51:46;0.77;;;0.77;;
48207;SDS011;33997;53.278;9.708;2024-02-14T02:54:12;1.45;;;1.08;;
48207;SDS011;33997;53.278;9.708;2024-02-14T02:56:38;4.38;;;1.25;;
48207;SDS011;33997;53.278;9.708;2024-02-14T02:59:05;2.15;;;1.08;;
48207;SDS011;33997;53.278;9.708;2024-02-14T03:01:37;1.50;;;1.02;;
48207;SDS011;33997;53.278;9.708;2024-02-14T03:04:03;1.90;;;1.33;;
48207;SDS011;33997;53.278;9.708;2024-02-14T03:06:30;2.63;;;1.40;;
48207;SDS011;33997;53.278;9.708;2024-02-14T03:08:55;2.08;;;1.30;;
48207;SDS011;33997;53.278;9.708;2024-02-14T03:11:22;2.55;;;1.20;;
48207;SDS011;33997;53.278;9.708;2024-02-14T03:13:48;2.60;;;1.23;;
48207;SDS011;33997;53.278;9.708;2024-02-14T03:16:16;2.72;;;1.40;;
48207;SDS011;33997;53.278;9.708;2024-02-14T03:18:42;2.33;;;1.35;;
48207;SDS011;33997;53.278;9.708;2024-02-14T03:21:08;3.53;;;1.60;;
48207;SDS011;33997;53.278;9.708;2024-02-14T03:23:34;2.17;;;1.23;;
48207;SDS011;33997;53.278;9.708;2024-02-14T03:25:59;2.10;;;1.33;;
48207;SDS011;33997;53.278;9.708;2024-02-14T03:28:25;2.17;;;1.35;;
48207;SDS011;33997;53.278;9.708;2024-02-14T03:30:51;1.95;;;1.10;;
48207;SDS011;33997;53.278;9.708;2024-02-14T03:33:17;2.88;;;1.25;;
48207;SDS011;33997;53.278;9.708;2024-02-14T03:35:42;2.60;;;1.13;;
48207;SDS011;33997;53.278;9.708;2024-02-14T03:38:08;1.60;;;1.10;;
48207;SDS011;33997;53.278;9.708;2024-02-14T03:40:34;4.30;;;1.70;;
48207;SDS011;33997;53.278;9.708;2024-02-14T03:43:00;1.90;;;1.27;;
48207;SDS011;33997;53.278;9.708;2024-02-14T03:45:27;2.97;;;1.30;;
48207;SDS011;33997;53.278;9.708;2024-02-14T03:47:54;2.05;;;1.25;;
48207;SDS011;33997;53.278;9.708;2024-02-14T03:50:20;2.17;;;1.25;;
48207;SDS011;33997;53.278;9.708;2024-02-14T03:52:46;2.45;;;1.42;;
48207;SDS011;33997;53.278;9.708;2024-02-14T03:55:13;1.92;;;1.17;;
48207;SDS011;33997;53.278;9.708;2024-02-14T03:57:39;2.58;;;1.27;;
48207;SDS011;33997;53.278;9.708;2024-02-14T04:00:05;2.78;;;1.42;;
48207;SDS011;33997;53.278;9.708;2024-02-14T04:02:34;1.98;;;1.40;;
48207;SDS011;33997;53.278;9.708;2024-02-14T04:04:59;2.67;;;1.58;;
48207;SDS011;33997;53.278;9.708;2024-02-14T04:07:25;3.05;;;1.75;;
48207;SDS011;33997;53.278;9.708;2024-02-14T04:09:51;3.15;;;1.70;;
48207;SDS011;33997;53.278;9.708;2024-02-14T04:12:17;2.10;;;1.00;;
48207;SDS011;33997;53.278;9.708;2024-02-14T04:14:43;1.92;;;1.05;;
48207;SDS011;33997;53.278;9.708;2024-02-14T04:17:08;2.45;;;1.40;;
48207;SDS011;33997;53.278;9.708;2024-02-14T04:19:36;3.80;;;1.60;;
48207;SDS011;33997;53.278;9.708;2024-02-14T04:22:01;2.97;;;1.50;;
48207;SDS011;33997;53.278;9.708;2024-02-14T04:24:27;2.90;;;1.13;;
48207;SDS011;33997;53.278;9.708;2024-02-14T04:26:53;3.70;;;2.15;;
48207;SDS011;33997;53.278;9.708;2024-02-14T04:29:20;2.83;;;1.55;;
48207;SDS011;33997;53.278;9.708;2024-02-14T04:31:45;3.13;;;1.55;;
48207;SDS011;33997;53.278;9.708;2024-02-14T04:34:11;2.58;;;1.40;;
48207;SDS011;33997;53.278;9.708;2024-02-14T04:36:38;3.92;;;1.77;;
48207;SDS011;33997;53.278;9.708;2024-02-14T04:39:05;4.30;;;1.60;;
48207;SDS011;33997;53.278;9.708;2024-02-14T04:41:30;2.28;;;1.20;;
48207;SDS011;33997;53.278;9.708;2024-02-14T04:43:56;3.72;;;1.98;;
48207;SDS011;33997;53.278;9.708;2024-02-14T04:46:22;2.20;;;1.40;;
48207;SDS011;33997;53.278;9.708;2024-02-14T04:48:47;2.38;;;1.52;;
48207;SDS011;33997;53.278;9.708;2024-02-14T04:51:13;4.20;;;1.77;;
48207;SDS011;33997;53.278;9.708;2024-02-14T04:53:38;2.22;;;1.20;;
48207;SDS011;33997;53.278;9.708;2024-02-14T04:56:04;2.30;;;1.20;;
48207;SDS011;33997;53.278;9.708;2024-02-14T04:58:29;2.65;;;1.45;;
48207;SDS011;33997;53.278;9.708;2024-02-14T05:00:55;1.70;;;1.40;;
48207;SDS011;33997;53.278;9.708;2024-02-14T05:03:21;2.88;;;1.52;;
48207;SDS011;33997;53.278;9.708;2024-02-14T05:05:49;2.40;;;1.40;;
48207;SDS011;33997;53.278;9.708;2024-02-14T05:08:14;2.78;;;1.40;;
48207;SDS011;33997;53.278;9.708;2024-02-14T05:10:40;3.67;;;2.08;;
48207;SDS011;33997;53.278;9.708;2024-02-14T05:13:06;3.30;;;1.65;;
48207;SDS011;33997;53.278;9.708;2024-02-14T05:15:31;3.50;;;1.80;;
48207;SDS011;33997;53.278;9.708;2024-02-14T05:17:57;2.20;;;1.60;;
48207;SDS011;33997;53.278;9.708;2024-02-14T05:20:22;2.60;;;1.60;;
48207;SDS011;33997;53.278;9.708;2024-02-14T05:22:48;3.30;;;1.55;;
48207;SDS011;33997;53.278;9.708;2024-02-14T05:25:13;1.98;;;1.40;;
48207;SDS011;33997;53.278;9.708;2024-02-14T05:27:39;2.60;;;1.70;;
48207;SDS011;33997;53.278;9.708;2024-02-14T05:30:05;3.28;;;1.55;;
48207;SDS011;33997;53.278;9.708;2024-02-14T05:32:34;2.38;;;1.40;;
48207;SDS011;33997;53.278;9.708;2024-02-14T05:35:00;3.28;;;1.77;;
48207;SDS011;33997;53.278;9.708;2024-02-14T05:37:26;2.05;;;1.30;;
48207;SDS011;33997;53.278;9.708;2024-02-14T05:39:52;2.83;;;1.35;;
48207;SDS011;33997;53.278;9.708;2024-02-14T05:42:18;2.75;;;1.63;;
48207;SDS011;33997;53.278;9.708;2024-02-14T05:44:44;2.95;;;1.70;;
48207;SDS011;33997;53.278;9.708;2024-02-14T05:47:09;3.08;;;1.30;;
48207;SDS011;33997;53.278;9.708;2024-02-14T05:49:37;2.83;;;1.45;;
48207;SDS011;33997;53.278;9.708;2024-02-14T05:52:03;3.15;;;2.05;;
48207;SDS011;33997;53.278;9.708;2024-02-14T05:54:29;2.15;;;1.33;;
48207;SDS011;33997;53.278;9.708;2024-02-14T05:56:54;3.55;;;1.50;;
48207;SDS011;33997;53.278;9.708;2024-02-14T05:59:21;3.33;;;1.90;;
48207;SDS011;33997;53.278;9.708;2024-02-14T06:01:47;2.75;;;1.40;;
48207;SDS011;33997;53.278;9.708;2024-02-14T06:04:12;2.45;;;1.40;;
48207;SDS011;33997;53.278;9.708;2024-02-14T06:06:37;2.83;;;1.60;;
48207;SDS011;33997;53.278;9.708;2024-02-14T06:09:03;4.10;;;1.52;;
48207;SDS011;33997;53.278;9.708;2024-02-14T06:11:34;3.00;;;1.48;;
48207;SDS011;33997;53.278;9.708;2024-02-14T06:14:00;2.78;;;1.60;;
48207;SDS011;33997;53.278;9.708;2024-02-14T06:16:25;2.67;;;1.42;;
48207;SDS011;33997;53.278;9.708;2024-02-14T06:18:51;2.25;;;1.45;;
48207;SDS011;33997;53.278;9.708;2024-02-14T06:21:16;2.67;;;1.50;;
48207;SDS011;33997;53.278;9.708;2024-02-14T06:23:42;2.75;;;1.65;;
48207;SDS011;33997;53.278;9.708;2024-02-14T06:26:07;2.40;;;1.48;;
48207;SDS011;33997;53.278;9.708;2024-02-14T06:28:33;2.53;;;1.40;;
48207;SDS011;33997;53.278;9.708;2024-02-14T06:30:58;2.42;;;1.40;;
48207;SDS011;33997;53.278;9.708;2024-02-14T06:33:25;2.75;;;1.48;;
48207;SDS011;33997;53.278;9.708;2024-02-14T06:35:50;3.33;;;1.77;;
48207;SDS011;33997;53.278;9.708;2024-02-14T06:38:16;3.28;;;2.00;;
48207;SDS011;33997;53.278;9.708;2024-02-14T06:40:41;4.28;;;1.75;;
48207;SDS011;33997;53.278;9.708;2024-02-14T06:43:08;3.17;;;1.73;;
48207;SDS011;33997;53.278;9.708;2024-02-14T06:45:34;2.63;;;1.50;;
48207;SDS011;33997;53.278;9.708;2024-02-14T06:47:59;2.25;;;1.27;;
48207;SDS011;33997;53.278;9.708;2024-02-14T06:50:25;3.13;;;1.75;;
48207;SDS011;33997;53.278;9.708;2024-02-14T06:52:50;4.60;;;2.38;;
48207;SDS011;33997;53.278;9.708;2024-02-14T06:55:16;2.47;;;1.27;;
48207;SDS011;33997;53.278;9.708;2024-02-14T06:57:42;2.75;;;1.75;;
48207;SDS011;33997;53.278;9.708;2024-02-14T07:00:07;3.25;;;1.67;;
48207;SDS011;33997;53.278;9.708;2024-02-14T07:02:33;2.05;;;1.40;;
48207;SDS011;33997;53.278;9.708;2024-02-14T07:04:59;3.70;;;1.55;;
48207;SDS011;33997;53.278;9.708;2024-02-14T07:07:25;2.40;;;1.30;;
48207;SDS011;33997;53.278;9.708;2024-02-14T07:09:50;3.10;;;1.52;;
48207;SDS011;33997;53.278;9.708;2024-02-14T07:12:16;2.83;;;1.58;;
48207;SDS011;33997;53.278;9.708;2024-02-14T07:14:41;3.08;;;1.50;;
48207;SDS011;33997;53.278;9.708;2024-02-14T07:17:07;2.45;;;1.45;;
48207;SDS011;33997;53.278;9.708;2024-02-14T07:19:32;3.10;;;1.77;;
48207;SDS011;33997;53.278;9.708;2024-02-14T07:21:59;2.47;;;1.50;;
48207;SDS011;33997;53.278;9.708;2024-02-14T07:24:24;2.63;;;1.40;;
48207;SDS011;33997;53.278;9.708;2024-02-14T07:26:50;3.63;;;1.65;;
48207;SDS011;33997;53.278;9.708;2024-02-14T07:29:15;3.55;;;1.70;;
48207;SDS011;33997;53.278;9.708;2024-02-14T07:31:41;3.38;;;1.65;;
48207;SDS011;33997;53.278;9.708;2024-02-14T07:34:06;2.80;;;1.55;;
48207;SDS011;33997;53.278;9.708;2024-02-14T07:36:32;3.50;;;1.80;;
48207;SDS011;33997;53.278;9.708;2024-02-14T07:38:57;2.03;;;1.20;;
48207;SDS011;33997;53.278;9.708;2024-02-14T07:41:23;3.28;;;1.70;;
48207;SDS011;33997;53.278;9.708;2024-02-14T07:43:48;3.85;;;1.50;;
48207;SDS011;33997;53.278;9.708;2024-02-14T07:46:20;3.03;;;1.38;;
48207;SDS011;33997;53.278;9.708;2024-02-14T07:48:47;3.92;;;2.20;;
48207;SDS011;33997;53.278;9.708;2024-02-14T07:51:13;3.03;;;1.50;;
48207;SDS011;33997;53.278;9.708;2024-02-14T07:53:39;2.95;;;1.80;;
48207;SDS011;33997;53.278;9.708;2024-02-14T07:56:04;3.35;;;2.00;;
48207;SDS011;33997;53.278;9.708;2024-02-14T07:58:30;3.10;;;1.90;;
48207;SDS011;33997;53.278;9.708;2024-02-14T08:00:56;2.55;;;1.48;;
48207;SDS011;33997;53.278;9.708;2024-02-14T08:03:21;2.78;;;1.50;;
48207;SDS011;33997;53.278;9.708;2024-02-14T08:05:46;3.45;;;1.80;;
48207;SDS011;33997;53.278;9.708;2024-02-14T08:08:12;4.05;;;1.67;;
48207;SDS011;33997;53.278;9.708;2024-02-14T08:10:37;3.10;;;1.65;;
48207;SDS011;33997;53.278;9.708;2024-02-14T08:13:03;3.08;;;1.50;;
48207;SDS011;33997;53.278;9.708;2024-02-14T08:15:29;3.40;;;1.75;;
48207;SDS011;33997;53.278;9.708;2024-02-14T08:17:55;2.42;;;1.42;;
48207;SDS011;33997;53.278;9.708;2024-02-14T08:20:21;3.90;;;1.90;;
48207;SDS011;33997;53.278;9.708;2024-02-14T08:22:48;1.80;;;1.38;;
48207;SDS011;33997;53.278;9.708;2024-02-14T08:25:13;3.67;;;1.67;;
48207;SDS011;33997;53.278;9.708;2024-02-14T08:27:39;3.30;;;1.65;;
48207;SDS011;33997;53.278;9.708;2024-02-14T08:30:04;2.95;;;1.60;;
48207;SDS011;33997;53.278;9.708;2024-02-14T08:32:31;1.92;;;1.45;;
48207;SDS011;33997;53.278;9.708;2024-02-14T08:34:58;3.30;;;1.75;;
48207;SDS011;33997;53.278;9.708;2024-02-14T08:37:23;3.17;;;1.38;;
48207;SDS011;33997;53.278;9.708;2024-02-14T08:39:49;3.58;;;1.98;;
48207;SDS011;33997;53.278;9.708;2024-02-14T08:42:15;2.95;;;1.45;;
48207;SDS011;33997;53.278;9.708;2024-02-14T08:44:40;2.42;;;1.40;;
48207;SDS011;33997;53.278;9.708;2024-02-14T08:47:06;2.50;;;1.50;;
48207;SDS011;33997;53.278;9.708;2024-02-14T08:49:32;2.63;;;1.42;;
48207;SDS011;33997;53.278;9.708;2024-02-14T08:51:58;3.58;;;1.80;;
48207;SDS011;33997;53.278;9.708;2024-02-14T08:54:24;2.63;;;1.55;;
48207;SDS011;33997;53.278;9.708;2024-02-14T08:56:49;3.03;;;1.48;;
48207;SDS011;33997;53.278;9.708;2024-02-14T08:59:17;2.15;;;1.15;;
48207;SDS011;33997;53.278;9.708;2024-02-14T09:01:43;2.75;;;1.27;;
48207;SDS011;33997;53.278;9.708;2024-02-14T09:04:09;2.17;;;1.33;;
48207;SDS011;33997;53.278;9.708;2024-02-14T09:06:34;4.00;;;2.00;;
48207;SDS011;33997;53.278;9.708;2024-02-14T09:09:00;3.67;;;1.58;;
48207;SDS011;33997;53.278;9.708;2024-02-14T09:11:25;2.70;;;1.40;;
48207;SDS011;33997;53.278;9.708;2024-02-14T09:13:51;2.63;;;1.42;;
48207;SDS011;33997;53.278;9.708;2024-02-14T09:16:19;2.72;;;1.40;;
48207;SDS011;33997;53.278;9.708;2024-02-14T09:18:45;3.60;;;1.60;;
48207;SDS011;33997;53.278;9.708;2024-02-14T09:21:11;2.60;;;1.45;;
48207;SDS011;33997;53.278;9.708;2024-02-14T09:23:37;3.30;;;1.42;;
48207;SDS011;33997;53.278;9.708;2024-02-14T09:26:05;2.72;;;1.65;;
48207;SDS011;33997;53.278;9.708;2024-02-14T09:28:30;2.65;;;1.35;;
48207;SDS011;33997;53.278;9.708;2024-02-14T09:30:58;2.42;;;1.38;;
48207;SDS011;33997;53.278;9.708;2024-02-14T09:33:23;2.45;;;1.52;;
48207;SDS011;33997;53.278;9.708;2024-02-14T09:35:49;3.55;;;1.60;;
48207;SDS011;33997;53.278;9.708;2024-02-14T09:38:16;2.70;;;1.38;;
48207;SDS011;33997;53.278;9.708;2024-02-14T09:40:42;1.83;;;1.08;;
48207;SDS011;33997;53.278;9.708;2024-02-14T09:43:15;2.33;;;1.30;;
48207;SDS011;33997;53.278;9.708;2024-02-14T09:46:03;3.10;;;1.60;;
48207;SDS011;33997;53.278;9.708;2024-02-14T09:48:29;1.52;;;0.98;;
48207;SDS011;33997;53.278;9.708;2024-02-14T09:50:56;3.17;;;1.65;;
48207;SDS011;33997;53.278;9.708;2024-02-14T09:53:21;2.83;;;1.52;;
48207;SDS011;33997;53.278;9.708;2024-02-14T09:55:48;2.97;;;1.27;;
48207;SDS011;33997;53.278;9.708;2024-02-14T09:58:15;2.58;;;1.38;;
48207;SDS011;33997;53.278;9.708;2024-02-14T10:00:41;3.83;;;1.85;;
48207;SDS011;33997;53.278;9.708;2024-02-14T10:03:07;3.45;;;1.60;;
48207;SDS011;33997;53.278;9.708;2024-02-14T10:05:33;3.38;;;1.85;;
48207;SDS011;33997;53.278;9.708;2024-02-14T10:07:58;2.78;;;1.60;;
48207;SDS011;33997;53.278;9.708;2024-02-14T10:10:24;2.97;;;1.70;;
48207;SDS011;33997;53.278;9.708;2024-02-14T10:12:50;3.35;;;1.60;;
48207;SDS011;33997;53.278;9.708;2024-02-14T10:15:15;3.38;;;1.95;;
48207;SDS011;33997;53.278;9.708;2024-02-14T10:17:41;4.00;;;2.05;;
48207;SDS011;33997;53.278;9.708;2024-02-14T10:20:08;2.85;;;1.45;;
48207;SDS011;33997;53.278;9.708;2024-02-14T10:22:35;2.53;;;1.40;;
48207;SDS011;33997;53.278;9.708;2024-02-14T10:25:02;3.50;;;1.85;;
48207;SDS011;33997;53.278;9.708;2024-02-14T10:27:37;3.47;;;1.63;;
48207;SDS011;33997;53.278;9.708;2024-02-14T10:30:04;2.85;;;1.42;;
48207;SDS011;33997;53.278;9.708;2024-02-14T10:32:33;2.72;;;1.50;;
48207;SDS011;33997;53.278;9.708;2024-02-14T10:34:58;3.78;;;1.70;;
48207;SDS011;33997;53.278;9.708;2024-02-14T10:37:25;2.45;;;1.60;;
48207;SDS011;33997;53.278;9.708;2024-02-14T10:39:53;1.80;;;1.38;;
48207;SDS011;33997;53.278;9.708;2024-02-14T10:42:21;2.97;;;1.48;;
48207;SDS011;33997;53.278;9.708;2024-02-14T10:44:46;3.58;;;1.60;;
48207;SDS011;33997;53.278;9.708;2024-02-14T10:47:14;2.90;;;1.58;;
48207;SDS011;33997;53.278;9.708;2024-02-14T10:49:46;3.13;;;1.60;;
48207;SDS011;33997;53.278;9.708;2024-02-14T10:52:13;3.67;;;1.77;;
48207;SDS011;33997;53.278;9.708;2024-02-14T10:54:41;2.40;;;1.38;;
48207;SDS011;33997;53.278;9.708;2024-02-14T10:57:14;2.50;;;1.70;;
48207;SDS011;33997;53.278;9.708;2024-02-14T10:59:43;3.45;;;1.48;;
48207;SDS011;33997;53.278;9.708;2024-02-14T11:02:11;2.42;;;1.45;;
48207;SDS011;33997;53.278;9.708;2024-02-14T11:04:37;3.50;;;1.83;;
48207;SDS011;33997;53.278;9.708;2024-02-14T11:07:03;1.70;;;0.98;;
48207;SDS011;33997;53.278;9.708;2024-02-14T11:09:38;2.35;;;1.50;;
48207;SDS011;33997;53.278;9.708;2024-02-14T11:12:08;2.58;;;1.17;;
48207;SDS011;33997;53.278;9.708;2024-02-14T11:14:35;2.83;;;1.70;;
48207;SDS011;33997;53.278;9.708;2024-02-14T11:17:02;4.20;;;1.92;;
48207;SDS011;33997;53.278;9.708;2024-02-14T11:19:31;3.78;;;1.83;;
48207;SDS011;33997;53.278;9.708;2024-02-14T11:22:13;3.92;;;1.85;;
48207;SDS011;33997;53.278;9.708;2024-02-14T11:24:42;3.60;;;1.70;;
48207;SDS011;33997;53.278;9.708;2024-02-14T11:27:11;3.63;;;1.80;;
48207;SDS011;33997;53.278;9.708;2024-02-14T11:29:38;4.07;;;2.10;;
48207;SDS011;33997;53.278;9.708;2024-02-14T11:32:08;5.57;;;2.25;;
48207;SDS011;33997;53.278;9.708;2024-02-14T11:34:36;4.22;;;2.50;;
48207;SDS011;33997;53.278;9.708;2024-02-14T11:37:02;3.90;;;1.90;;
48207;SDS011;33997;53.278;9.708;2024-02-14T11:39:29;5.00;;;2.15;;
48207;SDS011;33997;53.278;9.708;2024-02-14T11:41:56;4.20;;;2.13;;
48207;SDS011;33997;53.278;9.708;2024-02-14T11:44:23;5.32;;;2.75;;
48207;SDS011;33997;53.278;9.708;2024-02-14T11:46:50;5.32;;;2.58;;
48207;SDS011;33997;53.278;9.708;2024-02-14T11:49:16;3.85;;;2.20;;
48207;SDS011;33997;53.278;9.708;2024-02-14T11:51:42;3.35;;;2.03;;
48207;SDS011;33997;53.278;9.708;2024-02-14T11:54:07;4.60;;;2.15;;
48207;SDS011;33997;53.278;9.708;2024-02-14T11:56:37;4.10;;;2.30;;
48207;SDS011;33997;53.278;9.708;2024-02-14T11:59:03;4.65;;;2.00;;
48207;SDS011;33997;53.278;9.708;2024-02-14T12:04:01;3.47;;;1.90;;
48207;SDS011;33997;53.278;9.708;2024-02-14T12:06:29;4.32;;;2.60;;
48207;SDS011;33997;53.278;9.708;2024-02-14T12:09:02;4.72;;;2.50;;
48207;SDS011;33997;53.278;9.708;2024-02-14T12:11:37;5.53;;;2.45;;
48207;SDS011;33997;53.278;9.708;2024-02-14T12:14:07;5.28;;;2.08;;
48207;SDS011;33997;53.278;9.708;2024-02-14T12:16:34;3.50;;;2.17;;
48207;SDS011;33997;53.278;9.708;2024-02-14T12:19:04;6.28;;;1.88;;
48207;SDS011;33997;53.278;9.708;2024-02-14T12:21:37;4.53;;;2.00;;
48207;SDS011;33997;53.278;9.708;2024-02-14T12:24:07;4.22;;;2.38;;
48207;SDS011;33997;53.278;9.708;2024-02-14T12:26:37;3.90;;;2.28;;
48207;SDS011;33997;53.278;9.708;2024-02-14T12:29:03;4.97;;;2.58;;
48207;SDS011;33997;53.278;9.708;2024-02-14T12:31:30;4.68;;;2.38;;
48207;SDS011;33997;53.278;9.708;2024-02-14T12:33:56;3.95;;;2.45;;
48207;SDS011;33997;53.278;9.708;2024-02-14T12:36:24;4.15;;;2.08;;
48207;SDS011;33997;53.278;9.708;2024-02-14T12:38:50;5.32;;;2.65;;
48207;SDS011;33997;53.278;9.708;2024-02-14T12:41:18;4.95;;;2.10;;
48207;SDS011;33997;53.278;9.708;2024-02-14T12:43:43;3.95;;;2.40;;
48207;SDS011;33997;53.278;9.708;2024-02-14T12:46:09;3.35;;;1.75;;
48207;SDS011;33997;53.278;9.708;2024-02-14T12:48:35;3.40;;;2.17;;
48207;SDS011;33997;53.278;9.708;2024-02-14T12:51:00;4.47;;;2.30;;
48207;SDS011;33997;53.278;9.708;2024-02-14T12:53:25;5.13;;;2.53;;
48207;SDS011;33997;53.278;9.708;2024-02-14T12:55:51;4.03;;;2.10;;
48207;SDS011;33997;53.278;9.708;2024-02-14T12:58:17;4.53;;;2.50;;
48207;SDS011;33997;53.278;9.708;2024-02-14T13:00:42;4.72;;;2.30;;
48207;SDS011;33997;53.278;9.708;2024-02-14T13:03:09;3.92;;;2.00;;
48207;SDS011;33997;53.278;9.708;2024-02-14T13:05:36;4.22;;;2.03;;
48207;SDS011;33997;53.278;9.708;2024-02-14T13:08:01;4.10;;;2.00;;
48207;SDS011;33997;53.278;9.708;2024-02-14T13:10:27;4.78;;;2.22;;
48207;SDS011;33997;53.278;9.708;2024-02-14T13:12:54;4.68;;;2.08;;
48207;SDS011;33997;53.278;9.708;2024-02-14T13:15:19;4.45;;;2.22;;
48207;SDS011;33997;53.278;9.708;2024-02-14T13:17:45;3.03;;;1.65;;
48207;SDS011;33997;53.278;9.708;2024-02-14T13:20:11;4.38;;;2.10;;
48207;SDS011;33997;53.278;9.708;2024-02-14T13:22:37;4.93;;;2.17;;
48207;SDS011;33997;53.278;9.708;2024-02-14T13:25:02;3.85;;;1.92;;
48207;SDS011;33997;53.278;9.708;2024-02-14T13:27:29;3.17;;;1.98;;
48207;SDS011;33997;53.278;9.708;2024-02-14T13:29:55;3.40;;;1.83;;
48207;SDS011;33997;53.278;9.708;2024-02-14T13:32:21;4.18;;;2.15;;
48207;SDS011;33997;53.278;9.708;2024-02-14T13:34:46;3.78;;;2.03;;
48207;SDS011;33997;53.278;9.708;2024-02-14T13:37:12;4.72;;;2.03;;
48207;SDS011;33997;53.278;9.708;2024-02-14T13:39:38;2.97;;;1.88;;
48207;SDS011;33997;53.278;9.708;2024-02-14T13:42:04;3.53;;;1.77;;
48207;SDS011;33997;53.278;9.708;2024-02-14T13:44:30;3.45;;;1.73;;
48207;SDS011;33997;53.278;9.708;2024-02-14T13:46:56;4.13;;;1.88;;
48207;SDS011;33997;53.278;9.708;2024-02-14T13:49:21;4.05;;;2.05;;
48207;SDS011;33997;53.278;9.708;2024-02-14T13:51:50;4.20;;;2.05;;
48207;SDS011;33997;53.278;9.708;2024-02-14T13:54:17;3.75;;;1.85;;
48207;SDS011;33997;53.278;9.708;2024-02-14T13:56:43;3.22;;;1.73;;
48207;SDS011;33997;53.278;9.708;2024-02-14T13:59:09;4.53;;;1.90;;
48207;SDS011;33997;53.278;9.708;2024-02-14T14:01:35;4.57;;;2.08;;
48207;SDS011;33997;53.278;9.708;2024-02-14T14:04:01;4.38;;;2.05;;
48207;SDS011;33997;53.278;9.708;2024-02-14T14:06:28;3.63;;;1.60;;
48207;SDS011;33997;53.278;9.708;2024-02-14T14:08:57;4.30;;;1.75;;
48207;SDS011;33997;53.278;9.708;2024-02-14T14:11:24;3.72;;;1.70;;
48207;SDS011;33997;53.278;9.708;2024-02-14T14:13:49;4.28;;;1.80;;
48207;SDS011;33997;53.278;9.708;2024-02-14T14:16:15;4.55;;;2.00;;
48207;SDS011;33997;53.278;9.708;2024-02-14T14:18:40;3.58;;;2.00;;
48207;SDS011;33997;53.278;9.708;2024-02-14T14:21:06;4.22;;;1.80;;
48207;SDS011;33997;53.278;9.708;2024-02-14T14:23:32;4.72;;;1.83;;
48207;SDS011;33997;53.278;9.708;2024-02-14T14:25:58;3.13;;;1.77;;
48207;SDS011;33997;53.278;9.708;2024-02-14T14:28:24;4.22;;;1.95;;
48207;SDS011;33997;53.278;9.708;2024-02-14T14:30:52;3.85;;;1.80;;
48207;SDS011;33997;53.278;9.708;2024-02-14T14:33:19;4.22;;;2.17;;
48207;SDS011;33997;53.278;9.708;2024-02-14T14:35:45;2.95;;;1.77;;
48207;SDS011;33997;53.278;9.708;2024-02-14T14:38:10;3.30;;;1.63;;
48207;SDS011;33997;53.278;9.708;2024-02-14T14:40:36;3.58;;;2.00;;
48207;SDS011;33997;53.278;9.708;2024-02-14T14:43:02;3.03;;;1.75;;
48207;SDS011;33997;53.278;9.708;2024-02-14T14:45:28;3.72;;;1.92;;